sensor_id;sensor_type;location;lat;lon;timestamp;temperature;humidity
33715;DHT22;20043;50.998;4.754;2023-04-01T00:01:18;10.60;99.90
33715;DHT22;20043;50.998;4.754;2023-04-01T00:03:44;10.60;99.90
33715;DHT22;20043;50.998;4.754;2023-04-01T00:06:13;10.60;99.90
33715;DHT22;20043;50.998;4.754;2023-04-01T00:08:39;10.50;99.90
33715;DHT22;20043;50.998;4.754;2023-04-01T00:11:05;10.50;99.90
33715;DHT22;20043;50.998;4.754;2023-04-01T00:13:30;10.60;99.90
33715;DHT22;20043;50.998;4.754;2023-04-01T00:15:56;10.50;99.90
33715;DHT22;20043;50.998;4.754;2023-04-01T00:18:23;10.60;99.90
33715;DHT22;20043;50.998;4.754;2023-04-01T00:20:50;10.60;99.90
33715;DHT22;20043;50.998;4.754;2023-04-01T00:23:16;10.60;99.90
33715;DHT22;20043;50.998;4.754;2023-04-01T00:25:42;10.70;99.90
33715;DHT22;20043;50.998;4.754;2023-04-01T00:28:08;10.70;99.90
33715;DHT22;20043;50.998;4.754;2023-04-01T00:30:35;10.70;99.90
33715;DHT22;20043;50.998;4.754;2023-04-01T00:33:01;10.70;99.90
33715;DHT22;20043;50.998;4.754;2023-04-01T00:35:27;10.70;99.90
33715;DHT22;20043;50.998;4.754;2023-04-01T00:37:52;10.70;99.90
33715;DHT22;20043;50.998;4.754;2023-04-01T00:40:32;10.70;99.90
33715;DHT22;20043;50.998;4.754;2023-04-01T00:42:58;10.70;99.90
33715;DHT22;20043;50.998;4.754;2023-04-01T00:47:55;10.70;99.90
33715;DHT22;20043;50.998;4.754;2023-04-01T00:50:22;10.80;99.90
33715;DHT22;20043;50.998;4.754;2023-04-01T00:52:50;10.80;99.90
33715;DHT22;20043;50.998;4.754;2023-04-01T00:55:16;10.80;99.90
33715;DHT22;20043;50.998;4.754;2023-04-01T00:57:46;10.80;99.90
33715;DHT22;20043;50.998;4.754;2023-04-01T01:00:12;10.80;99.90
33715;DHT22;20043;50.998;4.754;2023-04-01T01:02:43;10.70;99.90
33715;DHT22;20043;50.998;4.754;2023-04-01T01:05:13;10.80;99.90
33715;DHT22;20043;50.998;4.754;2023-04-01T01:08:07;10.80;99.90
33715;DHT22;20043;50.998;4.754;2023-04-01T01:10:36;10.80;99.90
33715;DHT22;20043;50.998;4.754;2023-04-01T01:13:15;10.70;99.90
33715;DHT22;20043;50.998;4.754;2023-04-01T01:18:59;10.70;99.90
33715;DHT22;20043;50.998;4.754;2023-04-01T01:27:11;10.80;99.90
33715;DHT22;20043;50.998;4.754;2023-04-01T01:30:07;10.90;99.90
33715;DHT22;20043;50.998;4.754;2023-04-01T01:38:14;10.70;99.90
33715;DHT22;20043;50.998;4.754;2023-04-01T01:40:43;10.80;99.90
33715;DHT22;20043;50.998;4.754;2023-04-01T01:43:12;10.80;99.90
33715;DHT22;20043;50.998;4.754;2023-04-01T01:45:49;10.80;99.90
33715;DHT22;20043;50.998;4.754;2023-04-01T01:48:17;10.90;99.90
33715;DHT22;20043;50.998;4.754;2023-04-01T01:50:45;10.90;99.90
33715;DHT22;20043;50.998;4.754;2023-04-01T01:53:12;10.90;99.90
33715;DHT22;20043;50.998;4.754;2023-04-01T01:55:45;10.80;99.90
33715;DHT22;20043;50.998;4.754;2023-04-01T01:58:19;10.90;99.90
33715;DHT22;20043;50.998;4.754;2023-04-01T02:00:51;10.90;99.90
33715;DHT22;20043;50.998;4.754;2023-04-01T02:03:20;11.00;99.90
33715;DHT22;20043;50.998;4.754;2023-04-01T02:05:47;11.10;99.90
33715;DHT22;20043;50.998;4.754;2023-04-01T02:08:17;11.10;99.90
33715;DHT22;20043;50.998;4.754;2023-04-01T02:10:53;11.00;99.90
33715;DHT22;20043;50.998;4.754;2023-04-01T02:13:36;11.00;99.90
33715;DHT22;20043;50.998;4.754;2023-04-01T02:16:07;10.90;99.90
33715;DHT22;20043;50.998;4.754;2023-04-01T02:18:36;10.90;99.90
33715;DHT22;20043;50.998;4.754;2023-04-01T02:21:04;10.80;99.90
33715;DHT22;20043;50.998;4.754;2023-04-01T02:23:34;10.80;99.90
33715;DHT22;20043;50.998;4.754;2023-04-01T02:26:01;10.70;99.90
33715;DHT22;20043;50.998;4.754;2023-04-01T02:28:28;10.70;99.90
33715;DHT22;20043;50.998;4.754;2023-04-01T02:30:55;10.70;99.90
33715;DHT22;20043;50.998;4.754;2023-04-01T02:33:23;10.80;99.90
33715;DHT22;20043;50.998;4.754;2023-04-01T02:35:49;10.80;99.90
33715;DHT22;20043;50.998;4.754;2023-04-01T02:38:15;10.80;99.90
33715;DHT22;20043;50.998;4.754;2023-04-01T02:40:43;10.80;99.90
33715;DHT22;20043;50.998;4.754;2023-04-01T02:43:09;10.80;99.90
33715;DHT22;20043;50.998;4.754;2023-04-01T02:45:35;10.80;99.90
33715;DHT22;20043;50.998;4.754;2023-04-01T02:48:01;10.90;99.90
33715;DHT22;20043;50.998;4.754;2023-04-01T02:50:26;10.80;99.90
33715;DHT22;20043;50.998;4.754;2023-04-01T02:52:52;10.80;99.90
33715;DHT22;20043;50.998;4.754;2023-04-01T02:55:17;10.80;99.90
33715;DHT22;20043;50.998;4.754;2023-04-01T02:57:43;10.70;99.90
33715;DHT22;20043;50.998;4.754;2023-04-01T03:00:09;10.60;99.90
33715;DHT22;20043;50.998;4.754;2023-04-01T03:02:37;10.60;99.90
33715;DHT22;20043;50.998;4.754;2023-04-01T03:05:04;10.60;99.90
33715;DHT22;20043;50.998;4.754;2023-04-01T03:07:31;10.60;99.90
33715;DHT22;20043;50.998;4.754;2023-04-01T03:09:56;10.50;99.90
33715;DHT22;20043;50.998;4.754;2023-04-01T03:12:22;10.50;99.90
33715;DHT22;20043;50.998;4.754;2023-04-01T03:14:47;10.50;99.90
33715;DHT22;20043;50.998;4.754;2023-04-01T03:17:13;10.50;99.90
33715;DHT22;20043;50.998;4.754;2023-04-01T03:19:39;10.50;99.90
33715;DHT22;20043;50.998;4.754;2023-04-01T03:22:04;10.60;99.90
33715;DHT22;20043;50.998;4.754;2023-04-01T03:24:30;10.60;99.90
33715;DHT22;20043;50.998;4.754;2023-04-01T03:26:55;10.50;99.90
33715;DHT22;20043;50.998;4.754;2023-04-01T03:29:21;10.50;99.90
33715;DHT22;20043;50.998;4.754;2023-04-01T03:31:47;10.50;99.90
33715;DHT22;20043;50.998;4.754;2023-04-01T03:34:12;10.60;99.90
33715;DHT22;20043;50.998;4.754;2023-04-01T03:36:38;10.60;99.90
33715;DHT22;20043;50.998;4.754;2023-04-01T03:39:04;10.70;99.90
33715;DHT22;20043;50.998;4.754;2023-04-01T03:41:30;10.70;99.90
33715;DHT22;20043;50.998;4.754;2023-04-01T03:43:56;10.70;99.90
33715;DHT22;20043;50.998;4.754;2023-04-01T03:46:22;10.70;99.90
33715;DHT22;20043;50.998;4.754;2023-04-01T03:48:48;10.60;99.90
33715;DHT22;20043;50.998;4.754;2023-04-01T03:51:13;10.50;99.90
33715;DHT22;20043;50.998;4.754;2023-04-01T03:53:39;10.50;99.90
33715;DHT22;20043;50.998;4.754;2023-04-01T03:56:08;10.60;99.90
33715;DHT22;20043;50.998;4.754;2023-04-01T03:58:34;10.60;99.90
33715;DHT22;20043;50.998;4.754;2023-04-01T04:00:59;10.60;99.90
33715;DHT22;20043;50.998;4.754;2023-04-01T04:03:25;10.40;99.90
33715;DHT22;20043;50.998;4.754;2023-04-01T04:05:51;10.40;99.90
33715;DHT22;20043;50.998;4.754;2023-04-01T04:08:17;10.40;99.90
33715;DHT22;20043;50.998;4.754;2023-04-01T04:10:43;10.50;99.90
33715;DHT22;20043;50.998;4.754;2023-04-01T04:13:09;10.50;99.90
33715;DHT22;20043;50.998;4.754;2023-04-01T04:15:35;10.50;99.90
33715;DHT22;20043;50.998;4.754;2023-04-01T04:18:00;10.60;99.90
33715;DHT22;20043;50.998;4.754;2023-04-01T04:20:26;10.60;99.90
33715;DHT22;20043;50.998;4.754;2023-04-01T04:22:52;10.60;99.90
33715;DHT22;20043;50.998;4.754;2023-04-01T04:25:17;10.50;99.90
33715;DHT22;20043;50.998;4.754;2023-04-01T04:27:43;10.50;99.90
33715;DHT22;20043;50.998;4.754;2023-04-01T04:30:09;10.50;99.90
33715;DHT22;20043;50.998;4.754;2023-04-01T04:32:35;10.60;99.90
33715;DHT22;20043;50.998;4.754;2023-04-01T04:35:00;10.60;99.90
33715;DHT22;20043;50.998;4.754;2023-04-01T04:37:26;10.60;99.90
33715;DHT22;20043;50.998;4.754;2023-04-01T04:39:52;10.60;99.90
33715;DHT22;20043;50.998;4.754;2023-04-01T04:42:18;10.60;99.90
33715;DHT22;20043;50.998;4.754;2023-04-01T04:44:43;10.60;99.90
33715;DHT22;20043;50.998;4.754;2023-04-01T04:47:09;10.60;99.90
33715;DHT22;20043;50.998;4.754;2023-04-01T04:49:34;10.60;99.90
33715;DHT22;20043;50.998;4.754;2023-04-01T04:52:00;10.70;99.90
33715;DHT22;20043;50.998;4.754;2023-04-01T04:54:25;10.70;99.90
33715;DHT22;20043;50.998;4.754;2023-04-01T04:56:52;10.80;99.90
33715;DHT22;20043;50.998;4.754;2023-04-01T04:59:18;10.70;99.90
33715;DHT22;20043;50.998;4.754;2023-04-01T05:01:43;10.70;99.90
33715;DHT22;20043;50.998;4.754;2023-04-01T05:04:09;10.70;99.90
33715;DHT22;20043;50.998;4.754;2023-04-01T05:06:35;10.70;99.90
33715;DHT22;20043;50.998;4.754;2023-04-01T05:09:00;10.70;99.90
33715;DHT22;20043;50.998;4.754;2023-04-01T05:11:26;10.70;99.90
33715;DHT22;20043;50.998;4.754;2023-04-01T05:13:52;10.60;99.90
33715;DHT22;20043;50.998;4.754;2023-04-01T05:16:19;10.60;99.90
33715;DHT22;20043;50.998;4.754;2023-04-01T05:18:46;10.50;99.90
33715;DHT22;20043;50.998;4.754;2023-04-01T05:21:14;10.40;99.90
33715;DHT22;20043;50.998;4.754;2023-04-01T05:23:40;10.40;99.90
33715;DHT22;20043;50.998;4.754;2023-04-01T05:26:09;10.40;99.90
33715;DHT22;20043;50.998;4.754;2023-04-01T05:28:34;10.40;99.90
33715;DHT22;20043;50.998;4.754;2023-04-01T05:31:04;10.40;99.90
33715;DHT22;20043;50.998;4.754;2023-04-01T05:33:31;10.50;99.90
33715;DHT22;20043;50.998;4.754;2023-04-01T05:36:04;10.40;99.90
33715;DHT22;20043;50.998;4.754;2023-04-01T05:38:30;10.40;99.90
33715;DHT22;20043;50.998;4.754;2023-04-01T05:40:59;10.40;99.90
33715;DHT22;20043;50.998;4.754;2023-04-01T05:43:25;10.40;99.90
33715;DHT22;20043;50.998;4.754;2023-04-01T05:45:51;10.40;99.90
33715;DHT22;20043;50.998;4.754;2023-04-01T05:48:16;10.40;99.90
33715;DHT22;20043;50.998;4.754;2023-04-01T05:50:42;10.50;99.90
33715;DHT22;20043;50.998;4.754;2023-04-01T05:53:07;10.50;99.90
33715;DHT22;20043;50.998;4.754;2023-04-01T05:55:35;10.50;99.90
33715;DHT22;20043;50.998;4.754;2023-04-01T05:58:01;10.50;99.90
33715;DHT22;20043;50.998;4.754;2023-04-01T06:00:26;10.60;99.90
33715;DHT22;20043;50.998;4.754;2023-04-01T06:02:52;10.60;99.90
33715;DHT22;20043;50.998;4.754;2023-04-01T06:05:21;10.70;99.90
33715;DHT22;20043;50.998;4.754;2023-04-01T06:07:47;10.70;99.90
33715;DHT22;20043;50.998;4.754;2023-04-01T06:10:18;10.70;99.90
33715;DHT22;20043;50.998;4.754;2023-04-01T06:12:52;10.70;99.90
33715;DHT22;20043;50.998;4.754;2023-04-01T06:15:40;10.60;99.90
33715;DHT22;20043;50.998;4.754;2023-04-01T06:37:44;10.70;99.90
33715;DHT22;20043;50.998;4.754;2023-04-01T06:48:55;10.50;99.90
33715;DHT22;20043;50.998;4.754;2023-04-01T06:54:33;10.50;99.90
33715;DHT22;20043;50.998;4.754;2023-04-01T06:57:05;10.40;99.90
33715;DHT22;20043;50.998;4.754;2023-04-01T06:59:35;10.50;99.90
33715;DHT22;20043;50.998;4.754;2023-04-01T07:04:48;10.40;99.90
33715;DHT22;20043;50.998;4.754;2023-04-01T07:10:34;10.40;99.90
33715;DHT22;20043;50.998;4.754;2023-04-01T07:13:02;10.40;99.90
33715;DHT22;20043;50.998;4.754;2023-04-01T07:15:44;10.30;99.90
33715;DHT22;20043;50.998;4.754;2023-04-01T07:18:22;10.40;99.90
33715;DHT22;20043;50.998;4.754;2023-04-01T07:20:49;10.50;99.90
33715;DHT22;20043;50.998;4.754;2023-04-01T07:25:52;10.50;99.90
33715;DHT22;20043;50.998;4.754;2023-04-01T07:28:19;10.60;99.90
33715;DHT22;20043;50.998;4.754;2023-04-01T07:31:12;10.60;99.90
33715;DHT22;20043;50.998;4.754;2023-04-01T07:36:45;10.60;99.90
33715;DHT22;20043;50.998;4.754;2023-04-01T07:50:29;10.50;99.90
33715;DHT22;20043;50.998;4.754;2023-04-01T07:53:14;10.50;99.90
33715;DHT22;20043;50.998;4.754;2023-04-01T08:06:30;10.60;99.90
33715;DHT22;20043;50.998;4.754;2023-04-01T08:22:48;10.80;99.90
33715;DHT22;20043;50.998;4.754;2023-04-01T08:25:27;10.90;99.90
33715;DHT22;20043;50.998;4.754;2023-04-01T08:27:59;10.90;99.90
33715;DHT22;20043;50.998;4.754;2023-04-01T08:30:33;11.00;99.90
33715;DHT22;20043;50.998;4.754;2023-04-01T08:35:55;10.90;99.90
33715;DHT22;20043;50.998;4.754;2023-04-01T08:38:40;10.90;99.90
33715;DHT22;20043;50.998;4.754;2023-04-01T08:54:46;11.20;99.90
33715;DHT22;20043;50.998;4.754;2023-04-01T09:02:59;11.30;99.90
33715;DHT22;20043;50.998;4.754;2023-04-01T09:08:28;11.30;99.90
33715;DHT22;20043;50.998;4.754;2023-04-01T09:16:41;11.20;99.90
33715;DHT22;20043;50.998;4.754;2023-04-01T09:19:43;11.20;99.90
33715;DHT22;20043;50.998;4.754;2023-04-01T09:30:33;11.70;99.90
33715;DHT22;20043;50.998;4.754;2023-04-01T09:38:56;11.80;99.90
33715;DHT22;20043;50.998;4.754;2023-04-01T09:41:53;11.70;99.90
33715;DHT22;20043;50.998;4.754;2023-04-01T09:44:41;11.70;99.90
33715;DHT22;20043;50.998;4.754;2023-04-01T09:49:58;11.60;99.90
33715;DHT22;20043;50.998;4.754;2023-04-01T09:55:51;11.40;99.90
33715;DHT22;20043;50.998;4.754;2023-04-01T10:01:17;11.60;99.90
33715;DHT22;20043;50.998;4.754;2023-04-01T10:07:18;11.70;99.90
33715;DHT22;20043;50.998;4.754;2023-04-01T10:12:42;11.90;99.90
33715;DHT22;20043;50.998;4.754;2023-04-01T10:26:56;11.70;99.90
33715;DHT22;20043;50.998;4.754;2023-04-01T10:29:28;11.50;99.90
33715;DHT22;20043;50.998;4.754;2023-04-01T10:43:46;11.80;99.90
33715;DHT22;20043;50.998;4.754;2023-04-01T10:55:08;11.80;99.90
33715;DHT22;20043;50.998;4.754;2023-04-01T10:57:49;11.80;99.90
33715;DHT22;20043;50.998;4.754;2023-04-01T11:00:48;11.80;99.90
33715;DHT22;20043;50.998;4.754;2023-04-01T11:26:07;11.70;99.90
33715;DHT22;20043;50.998;4.754;2023-04-01T11:29:03;11.70;99.90
33715;DHT22;20043;50.998;4.754;2023-04-01T11:31:55;11.80;99.90
33715;DHT22;20043;50.998;4.754;2023-04-01T11:34:37;11.90;99.90
33715;DHT22;20043;50.998;4.754;2023-04-01T11:37:17;12.00;99.90
33715;DHT22;20043;50.998;4.754;2023-04-01T11:40:08;12.10;99.90
33715;DHT22;20043;50.998;4.754;2023-04-01T11:50:59;12.10;99.90
33715;DHT22;20043;50.998;4.754;2023-04-01T12:10:21;12.10;99.90
33715;DHT22;20043;50.998;4.754;2023-04-01T12:12:58;12.00;99.90
33715;DHT22;20043;50.998;4.754;2023-04-01T12:16:03;11.90;99.90
33715;DHT22;20043;50.998;4.754;2023-04-01T12:18:34;12.00;99.90
33715;DHT22;20043;50.998;4.754;2023-04-01T12:21:38;12.00;99.90
33715;DHT22;20043;50.998;4.754;2023-04-01T12:24:34;12.10;99.90
33715;DHT22;20043;50.998;4.754;2023-04-01T12:35:10;12.00;99.90
33715;DHT22;20043;50.998;4.754;2023-04-01T12:40:51;11.80;99.90
33715;DHT22;20043;50.998;4.754;2023-04-01T12:46:58;11.80;99.90
33715;DHT22;20043;50.998;4.754;2023-04-01T12:52:13;11.70;99.90
33715;DHT22;20043;50.998;4.754;2023-04-01T12:55:16;11.60;99.90
33715;DHT22;20043;50.998;4.754;2023-04-01T12:58:06;11.60;99.90
33715;DHT22;20043;50.998;4.754;2023-04-01T13:19:54;12.00;99.90
33715;DHT22;20043;50.998;4.754;2023-04-01T13:27:44;11.90;99.90
33715;DHT22;20043;50.998;4.754;2023-04-01T13:33:05;11.80;99.90
33715;DHT22;20043;50.998;4.754;2023-04-01T13:40:49;11.90;99.90
33715;DHT22;20043;50.998;4.754;2023-04-01T13:46:08;12.00;99.90
33715;DHT22;20043;50.998;4.754;2023-04-01T13:51:18;12.10;99.90
33715;DHT22;20043;50.998;4.754;2023-04-01T14:10:23;11.70;99.90
33715;DHT22;20043;50.998;4.754;2023-04-01T14:13:03;11.70;99.90
33715;DHT22;20043;50.998;4.754;2023-04-01T14:15:41;11.80;99.90
33715;DHT22;20043;50.998;4.754;2023-04-01T14:20:55;11.90;99.90
33715;DHT22;20043;50.998;4.754;2023-04-01T14:28:31;12.30;99.90
33715;DHT22;20043;50.998;4.754;2023-04-01T14:34:25;12.00;99.90
33715;DHT22;20043;50.998;4.754;2023-04-01T14:50:17;12.30;99.90
33715;DHT22;20043;50.998;4.754;2023-04-01T14:53:16;12.30;99.90
33715;DHT22;20043;50.998;4.754;2023-04-01T14:55:48;12.20;99.90
33715;DHT22;20043;50.998;4.754;2023-04-01T14:58:17;12.20;99.90
33715;DHT22;20043;50.998;4.754;2023-04-01T15:00:47;12.20;99.90
33715;DHT22;20043;50.998;4.754;2023-04-01T15:03:33;12.40;99.90
33715;DHT22;20043;50.998;4.754;2023-04-01T15:09:30;12.40;99.90
33715;DHT22;20043;50.998;4.754;2023-04-01T15:15:09;12.30;99.90
33715;DHT22;20043;50.998;4.754;2023-04-01T15:18:07;12.10;99.90
33715;DHT22;20043;50.998;4.754;2023-04-01T15:26:16;12.00;99.90
33715;DHT22;20043;50.998;4.754;2023-04-01T15:29:10;12.10;99.90
33715;DHT22;20043;50.998;4.754;2023-04-01T15:37:37;11.90;99.90
33715;DHT22;20043;50.998;4.754;2023-04-01T15:40:22;12.00;99.90
33715;DHT22;20043;50.998;4.754;2023-04-01T15:46:09;12.10;99.90
33715;DHT22;20043;50.998;4.754;2023-04-01T15:49:12;12.00;99.90
33715;DHT22;20043;50.998;4.754;2023-04-01T15:52:06;12.00;99.90
33715;DHT22;20043;50.998;4.754;2023-04-01T15:57:40;11.90;99.90
33715;DHT22;20043;50.998;4.754;2023-04-01T16:00:28;11.90;99.90
33715;DHT22;20043;50.998;4.754;2023-04-01T16:13:35;11.60;99.90
33715;DHT22;20043;50.998;4.754;2023-04-01T16:19:28;11.70;99.90
33715;DHT22;20043;50.998;4.754;2023-04-01T16:22:19;11.60;99.90
33715;DHT22;20043;50.998;4.754;2023-04-01T16:30:44;11.50;99.90
33715;DHT22;20043;50.998;4.754;2023-04-01T16:36:05;11.50;99.90
33715;DHT22;20043;50.998;4.754;2023-04-01T16:41:32;11.40;99.90
33715;DHT22;20043;50.998;4.754;2023-04-01T16:44:22;11.40;99.90
33715;DHT22;20043;50.998;4.754;2023-04-01T16:47:08;11.40;99.90
33715;DHT22;20043;50.998;4.754;2023-04-01T16:49:54;11.40;99.90
33715;DHT22;20043;50.998;4.754;2023-04-01T16:55:51;11.50;99.90
33715;DHT22;20043;50.998;4.754;2023-04-01T16:58:24;11.40;99.90
33715;DHT22;20043;50.998;4.754;2023-04-01T17:01:05;11.40;99.90
33715;DHT22;20043;50.998;4.754;2023-04-01T17:03:39;11.40;99.90
33715;DHT22;20043;50.998;4.754;2023-04-01T17:11:34;11.10;99.90
33715;DHT22;20043;50.998;4.754;2023-04-01T17:16:49;11.10;99.90
33715;DHT22;20043;50.998;4.754;2023-04-01T17:19:49;11.20;99.90
33715;DHT22;20043;50.998;4.754;2023-04-01T17:23:00;11.30;99.90
33715;DHT22;20043;50.998;4.754;2023-04-01T17:31:04;11.20;99.90
33715;DHT22;20043;50.998;4.754;2023-04-01T17:42:08;11.20;99.90
33715;DHT22;20043;50.998;4.754;2023-04-01T17:58:46;11.30;99.90
33715;DHT22;20043;50.998;4.754;2023-04-01T18:01:42;11.40;99.90
33715;DHT22;20043;50.998;4.754;2023-04-01T18:12:56;11.40;99.90
33715;DHT22;20043;50.998;4.754;2023-04-01T18:24:30;11.40;99.90
33715;DHT22;20043;50.998;4.754;2023-04-01T18:27:19;11.50;99.90
33715;DHT22;20043;50.998;4.754;2023-04-01T18:29:54;11.60;99.90
33715;DHT22;20043;50.998;4.754;2023-04-01T18:32:31;11.50;99.90
33715;DHT22;20043;50.998;4.754;2023-04-01T18:35:02;11.40;99.90
33715;DHT22;20043;50.998;4.754;2023-04-01T18:37:44;11.40;99.90
33715;DHT22;20043;50.998;4.754;2023-04-01T18:40:25;11.40;99.90
33715;DHT22;20043;50.998;4.754;2023-04-01T18:45:40;11.40;99.90
33715;DHT22;20043;50.998;4.754;2023-04-01T18:51:10;11.50;99.90
33715;DHT22;20043;50.998;4.754;2023-04-01T18:54:05;11.50;99.90
33715;DHT22;20043;50.998;4.754;2023-04-01T18:56:34;11.40;99.90
33715;DHT22;20043;50.998;4.754;2023-04-01T19:01:39;11.30;99.90
33715;DHT22;20043;50.998;4.754;2023-04-01T19:04:36;11.20;99.90
33715;DHT22;20043;50.998;4.754;2023-04-01T19:15:42;11.00;99.90
33715;DHT22;20043;50.998;4.754;2023-04-01T19:18:38;11.00;99.90
33715;DHT22;20043;50.998;4.754;2023-04-01T19:29:32;11.10;99.90
33715;DHT22;20043;50.998;4.754;2023-04-01T19:38:02;10.90;99.90
33715;DHT22;20043;50.998;4.754;2023-04-01T19:46:01;11.00;99.90
33715;DHT22;20043;50.998;4.754;2023-04-01T19:53:59;11.20;99.90
33715;DHT22;20043;50.998;4.754;2023-04-01T19:56:52;11.20;99.90
33715;DHT22;20043;50.998;4.754;2023-04-01T19:59:22;11.20;99.90
33715;DHT22;20043;50.998;4.754;2023-04-01T20:04:43;11.20;99.90
33715;DHT22;20043;50.998;4.754;2023-04-01T20:09:58;11.10;99.90
33715;DHT22;20043;50.998;4.754;2023-04-01T20:17:52;11.20;99.90
33715;DHT22;20043;50.998;4.754;2023-04-01T20:20:21;11.20;99.90
33715;DHT22;20043;50.998;4.754;2023-04-01T20:23:07;11.20;99.90
33715;DHT22;20043;50.998;4.754;2023-04-01T20:25:55;11.20;99.90
33715;DHT22;20043;50.998;4.754;2023-04-01T20:28:30;11.20;99.90
33715;DHT22;20043;50.998;4.754;2023-04-01T20:42:18;11.10;99.90
33715;DHT22;20043;50.998;4.754;2023-04-01T20:53:21;11.20;99.90
33715;DHT22;20043;50.998;4.754;2023-04-01T21:07:12;11.10;99.90
33715;DHT22;20043;50.998;4.754;2023-04-01T21:20:56;10.90;99.90
33715;DHT22;20043;50.998;4.754;2023-04-01T21:24:23;10.80;99.90
33715;DHT22;20043;50.998;4.754;2023-04-01T21:26:53;10.80;99.90
33715;DHT22;20043;50.998;4.754;2023-04-01T21:35:26;10.80;99.90
33715;DHT22;20043;50.998;4.754;2023-04-01T21:40:56;10.70;99.90
33715;DHT22;20043;50.998;4.754;2023-04-01T21:44:08;10.80;99.90
33715;DHT22;20043;50.998;4.754;2023-04-01T21:47:34;10.90;99.90
33715;DHT22;20043;50.998;4.754;2023-04-01T22:01:18;10.80;99.90
33715;DHT22;20043;50.998;4.754;2023-04-01T22:04:04;10.70;99.90
33715;DHT22;20043;50.998;4.754;2023-04-01T22:06:45;10.80;99.90
33715;DHT22;20043;50.998;4.754;2023-04-01T22:12:01;10.80;99.90
33715;DHT22;20043;50.998;4.754;2023-04-01T22:17:27;10.40;99.90
33715;DHT22;20043;50.998;4.754;2023-04-01T22:23:13;10.40;99.90
33715;DHT22;20043;50.998;4.754;2023-04-01T22:31:37;10.30;99.90
33715;DHT22;20043;50.998;4.754;2023-04-01T22:37:08;10.50;99.90
33715;DHT22;20043;50.998;4.754;2023-04-01T22:39:42;10.70;99.90
33715;DHT22;20043;50.998;4.754;2023-04-01T22:50:39;10.80;99.90
33715;DHT22;20043;50.998;4.754;2023-04-01T22:55:51;10.70;99.90
33715;DHT22;20043;50.998;4.754;2023-04-01T22:58:26;10.60;99.90
33715;DHT22;20043;50.998;4.754;2023-04-01T23:00:59;10.40;99.90
33715;DHT22;20043;50.998;4.754;2023-04-01T23:03:37;10.40;99.90
33715;DHT22;20043;50.998;4.754;2023-04-01T23:06:05;10.40;99.90
33715;DHT22;20043;50.998;4.754;2023-04-01T23:11:44;10.10;99.90
33715;DHT22;20043;50.998;4.754;2023-04-01T23:16:51;10.10;99.90
33715;DHT22;20043;50.998;4.754;2023-04-01T23:22:08;9.90;99.90
33715;DHT22;20043;50.998;4.754;2023-04-01T23:25:04;10.00;99.90
33715;DHT22;20043;50.998;4.754;2023-04-01T23:27:37;10.10;99.90
33715;DHT22;20043;50.998;4.754;2023-04-01T23:30:10;10.00;99.90
33715;DHT22;20043;50.998;4.754;2023-04-01T23:32:50;9.80;99.90
33715;DHT22;20043;50.998;4.754;2023-04-01T23:35:16;9.90;99.90
33715;DHT22;20043;50.998;4.754;2023-04-01T23:37:42;9.90;99.90
33715;DHT22;20043;50.998;4.754;2023-04-01T23:40:12;9.80;99.90
33715;DHT22;20043;50.998;4.754;2023-04-01T23:42:40;9.80;99.90
33715;DHT22;20043;50.998;4.754;2023-04-01T23:45:14;9.80;99.90
33715;DHT22;20043;50.998;4.754;2023-04-01T23:47:42;9.90;99.90
33715;DHT22;20043;50.998;4.754;2023-04-01T23:50:23;9.90;99.90
33715;DHT22;20043;50.998;4.754;2023-04-01T23:53:03;9.90;99.90
33715;DHT22;20043;50.998;4.754;2023-04-01T23:55:33;9.90;99.90
